sensor_id;sensor_type;location;lat;lon;timestamp;P1;durP1;ratioP1;P2;durP2;ratioP2
21611;SDS011;47005;52.292;13.452;2022-12-07T00:00:29;12.17;;;7.67;;
21611;SDS011;47005;52.292;13.452;2022-12-07T00:02:55;12.37;;;6.97;;
21611;SDS011;47005;52.292;13.452;2022-12-07T00:05:20;16.30;;;7.20;;
21611;SDS011;47005;52.292;13.452;2022-12-07T00:07:46;13.77;;;7.00;;
21611;SDS011;47005;52.292;13.452;2022-12-07T00:10:12;12.90;;;7.50;;
21611;SDS011;47005;52.292;13.452;2022-12-07T00:12:37;12.13;;;7.40;;
21611;SDS011;47005;52.292;13.452;2022-12-07T00:15:03;12.60;;;7.50;;
21611;SDS011;47005;52.292;13.452;2022-12-07T00:17:29;11.10;;;7.33;;
21611;SDS011;47005;52.292;13.452;2022-12-07T00:19:54;11.40;;;6.43;;
21611;SDS011;47005;52.292;13.452;2022-12-07T00:22:20;12.57;;;7.40;;
21611;SDS011;47005;52.292;13.452;2022-12-07T00:24:46;8.87;;;6.17;;
21611;SDS011;47005;52.292;13.452;2022-12-07T00:27:11;10.67;;;6.07;;
21611;SDS011;47005;52.292;13.452;2022-12-07T00:29:37;9.27;;;6.87;;
21611;SDS011;47005;52.292;13.452;2022-12-07T00:32:03;9.20;;;5.57;;
21611;SDS011;47005;52.292;13.452;2022-12-07T00:34:29;10.13;;;6.57;;
21611;SDS011;47005;52.292;13.452;2022-12-07T00:36:54;9.23;;;5.57;;
21611;SDS011;47005;52.292;13.452;2022-12-07T00:39:20;10.67;;;7.10;;
21611;SDS011;47005;52.292;13.452;2022-12-07T00:41:45;10.70;;;6.73;;
21611;SDS011;47005;52.292;13.452;2022-12-07T00:44:11;8.97;;;5.93;;
21611;SDS011;47005;52.292;13.452;2022-12-07T00:46:37;9.10;;;6.07;;
21611;SDS011;47005;52.292;13.452;2022-12-07T00:49:03;9.73;;;6.63;;
21611;SDS011;47005;52.292;13.452;2022-12-07T00:51:28;10.53;;;6.57;;
21611;SDS011;47005;52.292;13.452;2022-12-07T00:53:54;9.50;;;5.67;;
21611;SDS011;47005;52.292;13.452;2022-12-07T00:56:21;8.90;;;5.87;;
21611;SDS011;47005;52.292;13.452;2022-12-07T00:58:56;9.47;;;6.63;;
21611;SDS011;47005;52.292;13.452;2022-12-07T01:01:24;8.40;;;5.87;;
21611;SDS011;47005;52.292;13.452;2022-12-07T01:03:50;8.23;;;5.40;;
21611;SDS011;47005;52.292;13.452;2022-12-07T01:06:17;10.57;;;6.53;;
21611;SDS011;47005;52.292;13.452;2022-12-07T01:08:43;9.00;;;5.87;;
21611;SDS011;47005;52.292;13.452;2022-12-07T01:11:11;10.07;;;5.37;;
21611;SDS011;47005;52.292;13.452;2022-12-07T01:13:39;11.40;;;6.13;;
21611;SDS011;47005;52.292;13.452;2022-12-07T01:16:06;11.27;;;6.43;;
21611;SDS011;47005;52.292;13.452;2022-12-07T01:18:33;11.67;;;5.50;;
21611;SDS011;47005;52.292;13.452;2022-12-07T01:21:07;9.03;;;5.93;;
21611;SDS011;47005;52.292;13.452;2022-12-07T01:23:36;11.93;;;6.40;;
21611;SDS011;47005;52.292;13.452;2022-12-07T01:26:03;9.80;;;5.53;;
21611;SDS011;47005;52.292;13.452;2022-12-07T01:28:31;9.03;;;4.90;;
21611;SDS011;47005;52.292;13.452;2022-12-07T01:30:58;7.80;;;5.23;;
21611;SDS011;47005;52.292;13.452;2022-12-07T01:33:26;9.87;;;5.17;;
21611;SDS011;47005;52.292;13.452;2022-12-07T01:36:08;7.77;;;4.90;;
21611;SDS011;47005;52.292;13.452;2022-12-07T01:38:34;7.37;;;4.07;;
21611;SDS011;47005;52.292;13.452;2022-12-07T01:41:00;7.33;;;4.63;;
21611;SDS011;47005;52.292;13.452;2022-12-07T01:43:27;9.43;;;4.47;;
21611;SDS011;47005;52.292;13.452;2022-12-07T01:45:54;6.53;;;4.50;;
21611;SDS011;47005;52.292;13.452;2022-12-07T01:48:22;6.27;;;4.10;;
21611;SDS011;47005;52.292;13.452;2022-12-07T01:51:04;5.30;;;4.00;;
21611;SDS011;47005;52.292;13.452;2022-12-07T01:53:34;6.73;;;4.87;;
21611;SDS011;47005;52.292;13.452;2022-12-07T01:56:03;6.37;;;4.27;;
21611;SDS011;47005;52.292;13.452;2022-12-07T01:58:29;7.10;;;4.53;;
21611;SDS011;47005;52.292;13.452;2022-12-07T02:00:55;8.50;;;4.20;;
21611;SDS011;47005;52.292;13.452;2022-12-07T02:05:56;5.67;;;4.10;;
21611;SDS011;47005;52.292;13.452;2022-12-07T02:08:24;6.10;;;3.93;;
21611;SDS011;47005;52.292;13.452;2022-12-07T02:10:50;5.70;;;4.07;;
21611;SDS011;47005;52.292;13.452;2022-12-07T02:13:16;6.10;;;4.10;;
21611;SDS011;47005;52.292;13.452;2022-12-07T02:30:14;6.60;;;4.50;;
21611;SDS011;47005;52.292;13.452;2022-12-07T02:32:43;6.20;;;4.17;;
21611;SDS011;47005;52.292;13.452;2022-12-07T02:35:24;5.97;;;3.33;;
21611;SDS011;47005;52.292;13.452;2022-12-07T02:43:17;6.33;;;3.43;;
21611;SDS011;47005;52.292;13.452;2022-12-07T02:45:53;6.23;;;3.53;;
21611;SDS011;47005;52.292;13.452;2022-12-07T02:48:23;5.43;;;3.47;;
21611;SDS011;47005;52.292;13.452;2022-12-07T02:50:51;6.87;;;3.70;;
21611;SDS011;47005;52.292;13.452;2022-12-07T03:08:00;6.50;;;3.33;;
21611;SDS011;47005;52.292;13.452;2022-12-07T03:10:34;5.10;;;3.40;;
21611;SDS011;47005;52.292;13.452;2022-12-07T03:18:39;5.83;;;4.10;;
21611;SDS011;47005;52.292;13.452;2022-12-07T03:21:14;6.70;;;4.07;;
21611;SDS011;47005;52.292;13.452;2022-12-07T03:23:43;6.47;;;4.43;;
21611;SDS011;47005;52.292;13.452;2022-12-07T03:26:13;7.97;;;4.70;;
21611;SDS011;47005;52.292;13.452;2022-12-07T03:28:42;7.37;;;4.77;;
21611;SDS011;47005;52.292;13.452;2022-12-07T03:34:18;7.60;;;4.90;;
21611;SDS011;47005;52.292;13.452;2022-12-07T03:37:11;8.00;;;5.30;;
21611;SDS011;47005;52.292;13.452;2022-12-07T03:42:34;11.67;;;5.27;;
21611;SDS011;47005;52.292;13.452;2022-12-07T03:45:01;7.43;;;5.37;;
21611;SDS011;47005;52.292;13.452;2022-12-07T03:47:33;8.83;;;5.13;;
21611;SDS011;47005;52.292;13.452;2022-12-07T03:53:15;9.07;;;5.43;;
21611;SDS011;47005;52.292;13.452;2022-12-07T03:55:45;8.73;;;5.63;;
21611;SDS011;47005;52.292;13.452;2022-12-07T03:58:16;10.67;;;6.53;;
21611;SDS011;47005;52.292;13.452;2022-12-07T04:00:44;9.77;;;6.63;;
21611;SDS011;47005;52.292;13.452;2022-12-07T04:03:10;9.03;;;6.23;;
21611;SDS011;47005;52.292;13.452;2022-12-07T04:05:36;14.10;;;6.50;;
21611;SDS011;47005;52.292;13.452;2022-12-07T04:08:03;10.07;;;6.60;;
21611;SDS011;47005;52.292;13.452;2022-12-07T04:10:29;11.93;;;6.50;;
21611;SDS011;47005;52.292;13.452;2022-12-07T04:12:55;9.17;;;6.50;;
21611;SDS011;47005;52.292;13.452;2022-12-07T04:15:21;13.17;;;7.80;;
21611;SDS011;47005;52.292;13.452;2022-12-07T04:17:46;11.57;;;7.47;;
21611;SDS011;47005;52.292;13.452;2022-12-07T04:20:12;10.17;;;6.60;;
21611;SDS011;47005;52.292;13.452;2022-12-07T04:22:38;9.97;;;6.87;;
21611;SDS011;47005;52.292;13.452;2022-12-07T04:25:04;12.70;;;7.33;;
21611;SDS011;47005;52.292;13.452;2022-12-07T04:27:30;16.43;;;8.93;;
21611;SDS011;47005;52.292;13.452;2022-12-07T04:29:55;14.70;;;8.33;;
21611;SDS011;47005;52.292;13.452;2022-12-07T04:32:21;12.07;;;7.97;;
21611;SDS011;47005;52.292;13.452;2022-12-07T04:34:47;14.70;;;9.73;;
21611;SDS011;47005;52.292;13.452;2022-12-07T04:37:13;16.43;;;10.23;;
21611;SDS011;47005;52.292;13.452;2022-12-07T04:39:39;15.17;;;9.37;;
21611;SDS011;47005;52.292;13.452;2022-12-07T04:42:04;13.90;;;8.40;;
21611;SDS011;47005;52.292;13.452;2022-12-07T04:44:30;15.17;;;9.27;;
21611;SDS011;47005;52.292;13.452;2022-12-07T04:46:56;13.87;;;10.07;;
21611;SDS011;47005;52.292;13.452;2022-12-07T04:49:23;15.37;;;9.73;;
21611;SDS011;47005;52.292;13.452;2022-12-07T04:51:49;14.10;;;8.93;;
21611;SDS011;47005;52.292;13.452;2022-12-07T04:54:15;15.70;;;10.20;;
21611;SDS011;47005;52.292;13.452;2022-12-07T04:56:42;17.40;;;10.07;;
21611;SDS011;47005;52.292;13.452;2022-12-07T04:59:08;17.20;;;10.33;;
21611;SDS011;47005;52.292;13.452;2022-12-07T05:01:35;18.43;;;10.87;;
21611;SDS011;47005;52.292;13.452;2022-12-07T05:04:01;17.03;;;11.43;;
21611;SDS011;47005;52.292;13.452;2022-12-07T05:06:26;18.40;;;11.57;;
21611;SDS011;47005;52.292;13.452;2022-12-07T05:08:52;17.80;;;12.50;;
21611;SDS011;47005;52.292;13.452;2022-12-07T05:11:18;22.33;;;13.07;;
21611;SDS011;47005;52.292;13.452;2022-12-07T05:14:03;21.40;;;14.47;;
21611;SDS011;47005;52.292;13.452;2022-12-07T05:16:30;18.90;;;11.90;;
21611;SDS011;47005;52.292;13.452;2022-12-07T05:18:56;16.63;;;9.80;;
21611;SDS011;47005;52.292;13.452;2022-12-07T05:21:22;23.10;;;13.77;;
21611;SDS011;47005;52.292;13.452;2022-12-07T05:23:47;20.93;;;12.73;;
21611;SDS011;47005;52.292;13.452;2022-12-07T05:26:13;21.80;;;11.30;;
21611;SDS011;47005;52.292;13.452;2022-12-07T05:28:38;17.80;;;11.97;;
21611;SDS011;47005;52.292;13.452;2022-12-07T05:31:04;18.77;;;12.10;;
21611;SDS011;47005;52.292;13.452;2022-12-07T05:33:30;19.80;;;11.67;;
21611;SDS011;47005;52.292;13.452;2022-12-07T05:35:56;20.70;;;12.50;;
21611;SDS011;47005;52.292;13.452;2022-12-07T05:38:21;20.40;;;12.07;;
21611;SDS011;47005;52.292;13.452;2022-12-07T05:40:47;19.97;;;13.13;;
21611;SDS011;47005;52.292;13.452;2022-12-07T05:43:12;19.67;;;12.50;;
21611;SDS011;47005;52.292;13.452;2022-12-07T05:45:38;18.40;;;11.13;;
21611;SDS011;47005;52.292;13.452;2022-12-07T05:48:04;19.00;;;12.00;;
21611;SDS011;47005;52.292;13.452;2022-12-07T05:50:30;21.63;;;13.30;;
21611;SDS011;47005;52.292;13.452;2022-12-07T05:52:55;18.23;;;12.00;;
21611;SDS011;47005;52.292;13.452;2022-12-07T05:55:21;17.07;;;11.77;;
21611;SDS011;47005;52.292;13.452;2022-12-07T05:57:46;17.83;;;11.17;;
21611;SDS011;47005;52.292;13.452;2022-12-07T06:00:31;22.43;;;13.73;;
21611;SDS011;47005;52.292;13.452;2022-12-07T06:02:57;20.40;;;13.73;;
21611;SDS011;47005;52.292;13.452;2022-12-07T06:05:22;20.00;;;12.60;;
21611;SDS011;47005;52.292;13.452;2022-12-07T06:07:48;20.40;;;12.80;;
21611;SDS011;47005;52.292;13.452;2022-12-07T06:10:14;18.57;;;11.60;;
21611;SDS011;47005;52.292;13.452;2022-12-07T06:12:39;17.67;;;10.83;;
21611;SDS011;47005;52.292;13.452;2022-12-07T06:15:07;21.30;;;11.63;;
21611;SDS011;47005;52.292;13.452;2022-12-07T06:17:38;20.43;;;11.73;;
21611;SDS011;47005;52.292;13.452;2022-12-07T06:20:04;23.13;;;13.03;;
21611;SDS011;47005;52.292;13.452;2022-12-07T06:22:30;19.87;;;12.03;;
21611;SDS011;47005;52.292;13.452;2022-12-07T06:24:55;18.07;;;11.83;;
21611;SDS011;47005;52.292;13.452;2022-12-07T06:27:21;21.90;;;13.43;;
21611;SDS011;47005;52.292;13.452;2022-12-07T06:29:47;22.83;;;13.57;;
21611;SDS011;47005;52.292;13.452;2022-12-07T06:32:12;20.73;;;11.90;;
21611;SDS011;47005;52.292;13.452;2022-12-07T06:34:38;22.20;;;12.67;;
21611;SDS011;47005;52.292;13.452;2022-12-07T06:37:04;19.10;;;11.73;;
21611;SDS011;47005;52.292;13.452;2022-12-07T06:39:29;20.03;;;11.60;;
21611;SDS011;47005;52.292;13.452;2022-12-07T06:41:56;15.93;;;10.50;;
21611;SDS011;47005;52.292;13.452;2022-12-07T06:44:22;19.53;;;11.83;;
21611;SDS011;47005;52.292;13.452;2022-12-07T06:46:48;16.73;;;11.57;;
21611;SDS011;47005;52.292;13.452;2022-12-07T06:49:15;19.30;;;12.60;;
21611;SDS011;47005;52.292;13.452;2022-12-07T06:51:41;18.70;;;12.33;;
21611;SDS011;47005;52.292;13.452;2022-12-07T06:54:11;20.77;;;13.17;;
21611;SDS011;47005;52.292;13.452;2022-12-07T06:56:38;18.10;;;11.27;;
21611;SDS011;47005;52.292;13.452;2022-12-07T06:59:04;19.97;;;11.87;;
21611;SDS011;47005;52.292;13.452;2022-12-07T07:01:31;23.37;;;12.53;;
21611;SDS011;47005;52.292;13.452;2022-12-07T07:03:58;22.53;;;12.47;;
21611;SDS011;47005;52.292;13.452;2022-12-07T07:06:23;16.70;;;11.07;;
21611;SDS011;47005;52.292;13.452;2022-12-07T07:08:49;19.47;;;11.40;;
21611;SDS011;47005;52.292;13.452;2022-12-07T07:11:14;17.27;;;11.13;;
21611;SDS011;47005;52.292;13.452;2022-12-07T07:13:40;20.73;;;11.83;;
21611;SDS011;47005;52.292;13.452;2022-12-07T07:16:09;15.60;;;10.77;;
21611;SDS011;47005;52.292;13.452;2022-12-07T07:18:35;19.93;;;10.93;;
21611;SDS011;47005;52.292;13.452;2022-12-07T07:21:01;16.73;;;11.57;;
21611;SDS011;47005;52.292;13.452;2022-12-07T07:23:27;20.63;;;11.43;;
21611;SDS011;47005;52.292;13.452;2022-12-07T07:25:52;20.60;;;12.87;;
21611;SDS011;47005;52.292;13.452;2022-12-07T07:28:18;19.17;;;12.13;;
21611;SDS011;47005;52.292;13.452;2022-12-07T07:30:44;19.57;;;12.63;;
21611;SDS011;47005;52.292;13.452;2022-12-07T07:33:10;18.63;;;12.27;;
21611;SDS011;47005;52.292;13.452;2022-12-07T07:35:36;16.87;;;11.50;;
21611;SDS011;47005;52.292;13.452;2022-12-07T07:38:02;20.83;;;10.93;;
21611;SDS011;47005;52.292;13.452;2022-12-07T07:40:28;17.40;;;9.83;;
21611;SDS011;47005;52.292;13.452;2022-12-07T07:42:54;17.00;;;12.40;;
21611;SDS011;47005;52.292;13.452;2022-12-07T07:45:21;16.23;;;9.70;;
21611;SDS011;47005;52.292;13.452;2022-12-07T07:47:48;18.00;;;9.87;;
21611;SDS011;47005;52.292;13.452;2022-12-07T07:50:15;17.97;;;12.57;;
21611;SDS011;47005;52.292;13.452;2022-12-07T07:52:41;18.33;;;12.53;;
21611;SDS011;47005;52.292;13.452;2022-12-07T07:55:07;20.47;;;11.90;;
21611;SDS011;47005;52.292;13.452;2022-12-07T07:57:35;18.30;;;12.63;;
21611;SDS011;47005;52.292;13.452;2022-12-07T08:00:06;20.63;;;12.57;;
21611;SDS011;47005;52.292;13.452;2022-12-07T08:02:34;16.57;;;10.73;;
21611;SDS011;47005;52.292;13.452;2022-12-07T08:04:59;20.40;;;11.67;;
21611;SDS011;47005;52.292;13.452;2022-12-07T08:07:26;21.00;;;12.70;;
21611;SDS011;47005;52.292;13.452;2022-12-07T08:09:52;20.93;;;12.17;;
21611;SDS011;47005;52.292;13.452;2022-12-07T08:12:18;18.17;;;12.03;;
21611;SDS011;47005;52.292;13.452;2022-12-07T08:14:43;21.20;;;12.60;;
21611;SDS011;47005;52.292;13.452;2022-12-07T08:17:09;16.27;;;11.00;;
21611;SDS011;47005;52.292;13.452;2022-12-07T08:19:34;16.90;;;10.97;;
21611;SDS011;47005;52.292;13.452;2022-12-07T08:22:00;21.50;;;11.63;;
21611;SDS011;47005;52.292;13.452;2022-12-07T08:24:26;15.73;;;11.30;;
21611;SDS011;47005;52.292;13.452;2022-12-07T08:26:51;17.23;;;9.50;;
21611;SDS011;47005;52.292;13.452;2022-12-07T08:29:17;18.30;;;10.23;;
21611;SDS011;47005;52.292;13.452;2022-12-07T08:31:43;17.73;;;9.77;;
21611;SDS011;47005;52.292;13.452;2022-12-07T08:34:12;16.03;;;9.47;;
21611;SDS011;47005;52.292;13.452;2022-12-07T08:36:38;16.67;;;9.73;;
21611;SDS011;47005;52.292;13.452;2022-12-07T08:39:04;13.80;;;8.60;;
21611;SDS011;47005;52.292;13.452;2022-12-07T08:41:29;13.73;;;8.70;;
21611;SDS011;47005;52.292;13.452;2022-12-07T08:43:55;13.23;;;8.63;;
21611;SDS011;47005;52.292;13.452;2022-12-07T08:46:22;14.87;;;9.07;;
21611;SDS011;47005;52.292;13.452;2022-12-07T08:48:55;10.63;;;8.03;;
21611;SDS011;47005;52.292;13.452;2022-12-07T08:51:26;12.83;;;6.87;;
21611;SDS011;47005;52.292;13.452;2022-12-07T08:53:52;10.33;;;6.93;;
21611;SDS011;47005;52.292;13.452;2022-12-07T08:56:20;14.70;;;7.73;;
21611;SDS011;47005;52.292;13.452;2022-12-07T08:58:46;15.53;;;7.20;;
21611;SDS011;47005;52.292;13.452;2022-12-07T09:01:13;6.80;;;3.77;;
21611;SDS011;47005;52.292;13.452;2022-12-07T09:03:38;12.97;;;6.20;;
21611;SDS011;47005;52.292;13.452;2022-12-07T09:06:04;7.93;;;5.40;;
21611;SDS011;47005;52.292;13.452;2022-12-07T09:08:34;7.97;;;4.70;;
21611;SDS011;47005;52.292;13.452;2022-12-07T09:11:04;5.97;;;3.27;;
21611;SDS011;47005;52.292;13.452;2022-12-07T09:13:29;6.57;;;3.73;;
21611;SDS011;47005;52.292;13.452;2022-12-07T09:15:55;5.20;;;3.10;;
21611;SDS011;47005;52.292;13.452;2022-12-07T09:18:22;5.57;;;2.97;;
21611;SDS011;47005;52.292;13.452;2022-12-07T09:20:49;4.97;;;3.23;;
21611;SDS011;47005;52.292;13.452;2022-12-07T09:23:15;5.80;;;2.77;;
21611;SDS011;47005;52.292;13.452;2022-12-07T09:25:40;5.93;;;3.27;;
21611;SDS011;47005;52.292;13.452;2022-12-07T09:28:06;4.77;;;3.07;;
21611;SDS011;47005;52.292;13.452;2022-12-07T09:30:32;5.57;;;3.53;;
21611;SDS011;47005;52.292;13.452;2022-12-07T09:32:58;4.23;;;2.53;;
21611;SDS011;47005;52.292;13.452;2022-12-07T09:35:24;4.50;;;2.43;;
21611;SDS011;47005;52.292;13.452;2022-12-07T09:37:49;7.23;;;3.10;;
21611;SDS011;47005;52.292;13.452;2022-12-07T09:40:16;4.00;;;2.40;;
21611;SDS011;47005;52.292;13.452;2022-12-07T09:42:45;5.40;;;3.33;;
21611;SDS011;47005;52.292;13.452;2022-12-07T09:45:15;3.97;;;2.07;;
21611;SDS011;47005;52.292;13.452;2022-12-07T09:47:44;4.03;;;2.30;;
21611;SDS011;47005;52.292;13.452;2022-12-07T09:50:15;4.70;;;2.43;;
21611;SDS011;47005;52.292;13.452;2022-12-07T09:52:45;4.60;;;2.90;;
21611;SDS011;47005;52.292;13.452;2022-12-07T09:55:13;2.10;;;1.60;;
21611;SDS011;47005;52.292;13.452;2022-12-07T09:57:41;5.13;;;2.87;;
21611;SDS011;47005;52.292;13.452;2022-12-07T10:00:15;8.57;;;2.80;;
21611;SDS011;47005;52.292;13.452;2022-12-07T10:02:46;4.30;;;2.03;;
21611;SDS011;47005;52.292;13.452;2022-12-07T10:05:36;4.27;;;1.93;;
21611;SDS011;47005;52.292;13.452;2022-12-07T10:08:12;5.60;;;2.67;;
21611;SDS011;47005;52.292;13.452;2022-12-07T10:10:39;3.83;;;2.47;;
21611;SDS011;47005;52.292;13.452;2022-12-07T10:13:13;5.03;;;2.53;;
21611;SDS011;47005;52.292;13.452;2022-12-07T10:15:47;3.40;;;2.57;;
21611;SDS011;47005;52.292;13.452;2022-12-07T10:18:45;4.00;;;2.20;;
21611;SDS011;47005;52.292;13.452;2022-12-07T10:24:26;3.33;;;1.97;;
21611;SDS011;47005;52.292;13.452;2022-12-07T10:29:16;5.00;;;2.40;;
21611;SDS011;47005;52.292;13.452;2022-12-07T10:32:04;3.00;;;1.87;;
21611;SDS011;47005;52.292;13.452;2022-12-07T10:34:50;3.23;;;1.73;;
21611;SDS011;47005;52.292;13.452;2022-12-07T10:37:40;5.43;;;2.07;;
21611;SDS011;47005;52.292;13.452;2022-12-07T10:40:23;4.27;;;2.37;;
21611;SDS011;47005;52.292;13.452;2022-12-07T10:43:18;4.03;;;2.23;;
21611;SDS011;47005;52.292;13.452;2022-12-07T10:48:15;6.90;;;2.53;;
21611;SDS011;47005;52.292;13.452;2022-12-07T10:56:18;3.90;;;2.13;;
21611;SDS011;47005;52.292;13.452;2022-12-07T11:18:45;5.27;;;2.57;;
21611;SDS011;47005;52.292;13.452;2022-12-07T11:37:49;3.20;;;1.73;;
21611;SDS011;47005;52.292;13.452;2022-12-07T11:40:23;7.17;;;2.67;;
21611;SDS011;47005;52.292;13.452;2022-12-07T11:42:58;3.50;;;2.30;;
21611;SDS011;47005;52.292;13.452;2022-12-07T11:45:34;5.63;;;2.40;;
21611;SDS011;47005;52.292;13.452;2022-12-07T11:48:18;4.00;;;2.17;;
21611;SDS011;47005;52.292;13.452;2022-12-07T11:50:53;5.83;;;2.73;;
21611;SDS011;47005;52.292;13.452;2022-12-07T11:53:56;3.30;;;1.90;;
21611;SDS011;47005;52.292;13.452;2022-12-07T11:56:15;3.23;;;1.90;;
21611;SDS011;47005;52.292;13.452;2022-12-07T12:01:51;3.43;;;1.97;;
21611;SDS011;47005;52.292;13.452;2022-12-07T12:07:13;5.30;;;1.70;;
21611;SDS011;47005;52.292;13.452;2022-12-07T12:10:05;4.03;;;2.33;;
21611;SDS011;47005;52.292;13.452;2022-12-07T12:12:41;3.27;;;1.90;;
21611;SDS011;47005;52.292;13.452;2022-12-07T12:18:21;4.50;;;1.97;;
21611;SDS011;47005;52.292;13.452;2022-12-07T12:21:12;5.13;;;1.67;;
21611;SDS011;47005;52.292;13.452;2022-12-07T12:23:41;2.57;;;1.43;;
21611;SDS011;47005;52.292;13.452;2022-12-07T12:26:20;3.93;;;1.60;;
21611;SDS011;47005;52.292;13.452;2022-12-07T12:28:55;2.47;;;1.43;;
21611;SDS011;47005;52.292;13.452;2022-12-07T12:33:58;3.60;;;1.60;;
21611;SDS011;47005;52.292;13.452;2022-12-07T12:46:53;3.63;;;1.60;;
21611;SDS011;47005;52.292;13.452;2022-12-07T12:54:19;5.50;;;1.53;;
21611;SDS011;47005;52.292;13.452;2022-12-07T12:56:51;3.00;;;1.83;;
21611;SDS011;47005;52.292;13.452;2022-12-07T12:59:31;5.00;;;1.97;;
21611;SDS011;47005;52.292;13.452;2022-12-07T13:04:55;3.93;;;1.20;;
21611;SDS011;47005;52.292;13.452;2022-12-07T13:20:53;4.77;;;1.67;;
21611;SDS011;47005;52.292;13.452;2022-12-07T13:23:19;4.97;;;1.27;;
21611;SDS011;47005;52.292;13.452;2022-12-07T13:25:57;3.53;;;1.37;;
21611;SDS011;47005;52.292;13.452;2022-12-07T13:28:33;1.97;;;1.20;;
21611;SDS011;47005;52.292;13.452;2022-12-07T13:31:04;8.03;;;1.67;;
21611;SDS011;47005;52.292;13.452;2022-12-07T13:33:46;5.23;;;1.43;;
21611;SDS011;47005;52.292;13.452;2022-12-07T13:36:22;8.47;;;2.10;;
21611;SDS011;47005;52.292;13.452;2022-12-07T13:38:57;6.33;;;2.70;;
21611;SDS011;47005;52.292;13.452;2022-12-07T13:41:27;6.57;;;1.70;;
21611;SDS011;47005;52.292;13.452;2022-12-07T13:44:14;9.43;;;2.03;;
21611;SDS011;47005;52.292;13.452;2022-12-07T13:49:18;4.93;;;1.60;;
21611;SDS011;47005;52.292;13.452;2022-12-07T13:51:44;4.47;;;1.80;;
21611;SDS011;47005;52.292;13.452;2022-12-07T13:54:11;4.60;;;1.80;;
21611;SDS011;47005;52.292;13.452;2022-12-07T13:56:38;3.10;;;1.63;;
21611;SDS011;47005;52.292;13.452;2022-12-07T13:59:10;6.40;;;1.40;;
21611;SDS011;47005;52.292;13.452;2022-12-07T14:01:39;3.53;;;2.10;;
21611;SDS011;47005;52.292;13.452;2022-12-07T14:06:50;2.63;;;1.80;;
21611;SDS011;47005;52.292;13.452;2022-12-07T14:09:17;3.93;;;1.37;;
21611;SDS011;47005;52.292;13.452;2022-12-07T14:11:48;3.00;;;1.63;;
21611;SDS011;47005;52.292;13.452;2022-12-07T14:14:18;3.00;;;1.37;;
21611;SDS011;47005;52.292;13.452;2022-12-07T14:24:58;5.20;;;1.90;;
21611;SDS011;47005;52.292;13.452;2022-12-07T14:27:31;8.47;;;1.90;;
21611;SDS011;47005;52.292;13.452;2022-12-07T14:30:03;4.43;;;1.30;;
21611;SDS011;47005;52.292;13.452;2022-12-07T14:32:29;7.47;;;2.60;;
21611;SDS011;47005;52.292;13.452;2022-12-07T14:35:09;9.07;;;1.90;;
21611;SDS011;47005;52.292;13.452;2022-12-07T14:37:38;7.13;;;1.70;;
21611;SDS011;47005;52.292;13.452;2022-12-07T14:40:05;3.87;;;2.10;;
21611;SDS011;47005;52.292;13.452;2022-12-07T14:42:31;4.10;;;1.90;;
21611;SDS011;47005;52.292;13.452;2022-12-07T14:44:59;5.83;;;2.47;;
21611;SDS011;47005;52.292;13.452;2022-12-07T14:47:25;3.50;;;2.13;;
21611;SDS011;47005;52.292;13.452;2022-12-07T14:49:51;4.90;;;1.97;;
21611;SDS011;47005;52.292;13.452;2022-12-07T14:52:21;7.70;;;2.40;;
21611;SDS011;47005;52.292;13.452;2022-12-07T14:54:51;6.73;;;2.30;;
21611;SDS011;47005;52.292;13.452;2022-12-07T14:57:17;3.07;;;1.93;;
21611;SDS011;47005;52.292;13.452;2022-12-07T14:59:43;3.53;;;1.60;;
21611;SDS011;47005;52.292;13.452;2022-12-07T15:02:10;2.97;;;1.63;;
21611;SDS011;47005;52.292;13.452;2022-12-07T15:04:37;2.70;;;1.63;;
21611;SDS011;47005;52.292;13.452;2022-12-07T15:07:04;4.93;;;1.50;;
21611;SDS011;47005;52.292;13.452;2022-12-07T15:09:31;3.37;;;1.90;;
21611;SDS011;47005;52.292;13.452;2022-12-07T15:11:57;7.00;;;2.07;;
21611;SDS011;47005;52.292;13.452;2022-12-07T15:14:22;4.30;;;2.43;;
21611;SDS011;47005;52.292;13.452;2022-12-07T15:16:48;5.60;;;2.20;;
21611;SDS011;47005;52.292;13.452;2022-12-07T15:19:14;4.57;;;2.00;;
21611;SDS011;47005;52.292;13.452;2022-12-07T15:21:42;3.90;;;1.73;;
21611;SDS011;47005;52.292;13.452;2022-12-07T15:24:09;10.30;;;2.33;;
21611;SDS011;47005;52.292;13.452;2022-12-07T15:26:36;2.67;;;1.50;;
21611;SDS011;47005;52.292;13.452;2022-12-07T15:29:03;5.47;;;1.77;;
21611;SDS011;47005;52.292;13.452;2022-12-07T15:31:29;9.23;;;2.13;;
21611;SDS011;47005;52.292;13.452;2022-12-07T15:33:55;2.90;;;1.87;;
21611;SDS011;47005;52.292;13.452;2022-12-07T15:36:22;7.77;;;2.00;;
21611;SDS011;47005;52.292;13.452;2022-12-07T15:38:49;4.43;;;1.93;;
21611;SDS011;47005;52.292;13.452;2022-12-07T15:41:16;3.30;;;1.57;;
21611;SDS011;47005;52.292;13.452;2022-12-07T15:43:42;9.13;;;2.10;;
21611;SDS011;47005;52.292;13.452;2022-12-07T15:46:33;6.13;;;1.87;;
21611;SDS011;47005;52.292;13.452;2022-12-07T15:49:03;3.10;;;1.67;;
21611;SDS011;47005;52.292;13.452;2022-12-07T15:51:31;4.97;;;2.23;;
21611;SDS011;47005;52.292;13.452;2022-12-07T15:53:57;11.63;;;1.90;;
21611;SDS011;47005;52.292;13.452;2022-12-07T15:56:23;3.77;;;2.27;;
21611;SDS011;47005;52.292;13.452;2022-12-07T15:58:49;4.33;;;2.17;;
21611;SDS011;47005;52.292;13.452;2022-12-07T16:01:18;6.60;;;2.47;;
21611;SDS011;47005;52.292;13.452;2022-12-07T16:03:44;7.10;;;2.80;;
21611;SDS011;47005;52.292;13.452;2022-12-07T16:06:11;10.07;;;2.77;;
21611;SDS011;47005;52.292;13.452;2022-12-07T16:08:43;4.07;;;2.60;;
21611;SDS011;47005;52.292;13.452;2022-12-07T16:11:09;6.57;;;2.20;;
21611;SDS011;47005;52.292;13.452;2022-12-07T16:13:35;11.03;;;2.87;;
21611;SDS011;47005;52.292;13.452;2022-12-07T16:16:02;6.30;;;2.27;;
21611;SDS011;47005;52.292;13.452;2022-12-07T16:18:29;2.57;;;1.63;;
21611;SDS011;47005;52.292;13.452;2022-12-07T16:20:55;5.80;;;2.57;;
21611;SDS011;47005;52.292;13.452;2022-12-07T16:23:20;4.47;;;2.33;;
21611;SDS011;47005;52.292;13.452;2022-12-07T16:25:46;4.70;;;2.10;;
21611;SDS011;47005;52.292;13.452;2022-12-07T16:28:11;7.67;;;2.50;;
21611;SDS011;47005;52.292;13.452;2022-12-07T16:30:37;4.87;;;2.47;;
21611;SDS011;47005;52.292;13.452;2022-12-07T16:33:02;3.53;;;1.70;;
21611;SDS011;47005;52.292;13.452;2022-12-07T16:35:28;6.33;;;2.43;;
21611;SDS011;47005;52.292;13.452;2022-12-07T16:37:54;8.23;;;2.23;;
21611;SDS011;47005;52.292;13.452;2022-12-07T16:40:19;6.27;;;2.10;;
21611;SDS011;47005;52.292;13.452;2022-12-07T16:42:45;9.50;;;2.53;;
21611;SDS011;47005;52.292;13.452;2022-12-07T16:45:11;3.07;;;1.80;;
21611;SDS011;47005;52.292;13.452;2022-12-07T16:47:38;4.30;;;2.17;;
21611;SDS011;47005;52.292;13.452;2022-12-07T16:50:04;8.67;;;2.37;;
21611;SDS011;47005;52.292;13.452;2022-12-07T16:52:30;4.83;;;2.57;;
21611;SDS011;47005;52.292;13.452;2022-12-07T16:54:56;5.33;;;2.30;;
21611;SDS011;47005;52.292;13.452;2022-12-07T16:57:21;9.33;;;2.37;;
21611;SDS011;47005;52.292;13.452;2022-12-07T16:59:47;9.73;;;2.67;;
21611;SDS011;47005;52.292;13.452;2022-12-07T17:02:12;4.77;;;2.83;;
21611;SDS011;47005;52.292;13.452;2022-12-07T17:04:38;8.03;;;3.03;;
21611;SDS011;47005;52.292;13.452;2022-12-07T17:07:07;8.43;;;2.60;;
21611;SDS011;47005;52.292;13.452;2022-12-07T17:09:33;4.40;;;2.30;;
21611;SDS011;47005;52.292;13.452;2022-12-07T17:12:00;6.20;;;2.43;;